Time;durP1;ratioP1;P1;durP2;ratioP2;P2;SDS_P1;SDS_P2;PMS_P1;PMS_P2;Temp;Humidity;BMP_temperature;BMP_pressure;BME280_temperature;BME280_humidity;BME280_pressure;Samples;Min_cycle;Max_cycle;Signal;HPM_P1;HPM_P2
2020/12/11 00:00:28;;;;;;;9.95;7.40;;;18.40;52.60;;;;;;5046305;28;20182;-62
2020/12/11 00:02:54;;;;;;;8.55;6.43;;;18.30;52.60;;;;;;5046458;28;20175;-61
2020/12/11 00:05:19;;;;;;;7.82;6.70;;;18.30;52.60;;;;;;5046552;28;20174;-60
2020/12/11 00:07:45;;;;;;;8.18;6.47;;;18.30;52.60;;;;;;5046335;28;20175;-61
2020/12/11 00:10:11;;;;;;;8.40;6.70;;;18.30;52.60;;;;;;5046132;28;20523;-60
2020/12/11 00:12:37;;;;;;;7.00;5.72;;;18.20;52.60;;;;;;5046223;28;20210;-61
2020/12/11 00:15:07;;;;;;;7.05;6.10;;;18.20;52.60;;;;;;5046295;28;20168;-60
2020/12/11 00:17:33;;;;;;;7.13;6.32;;;18.20;52.60;;;;;;5046026;28;20185;-60
2020/12/11 00:19:58;;;;;;;7.13;6.25;;;18.10;52.60;;;;;;5046012;28;20183;-61
2020/12/11 00:22:24;;;;;;;8.43;6.78;;;18.10;52.70;;;;;;5028045;28;20198;-62
2020/12/11 00:24:50;;;;;;;7.07;6.05;;;18.00;52.60;;;;;;5046146;28;20652;-60
2020/12/11 00:27:15;;;;;;;7.75;6.53;;;18.00;52.60;;;;;;5045933;28;20568;-61
2020/12/11 00:29:41;;;;;;;6.97;6.28;;;18.00;52.60;;;;;;5045607;28;20182;-60
2020/12/11 00:32:07;;;;;;;6.10;5.50;;;18.00;52.60;;;;;;5045583;28;20586;-60
2020/12/11 00:34:32;;;;;;;7.45;5.82;;;17.90;52.60;;;;;;5045769;28;20205;-59
2020/12/11 00:36:58;;;;;;;6.75;5.90;;;17.90;52.60;;;;;;5046084;28;20261;-60
2020/12/11 00:39:24;;;;;;;6.63;5.85;;;17.90;52.60;;;;;;5045450;28;20258;-60
2020/12/11 00:41:49;;;;;;;6.40;5.80;;;17.80;52.60;;;;;;5045117;28;20536;-61
2020/12/11 00:44:15;;;;;;;6.90;6.03;;;17.80;52.60;;;;;;5045703;28;20182;-61
2020/12/11 00:46:40;;;;;;;6.13;5.53;;;17.80;52.60;;;;;;5045833;28;20527;-61
2020/12/11 00:49:06;;;;;;;6.03;5.43;;;17.80;52.60;;;;;;5045699;28;21007;-60
2020/12/11 00:51:31;;;;;;;7.45;5.93;;;17.80;52.60;;;;;;5045148;28;20544;-59
2020/12/11 00:53:57;;;;;;;6.05;5.35;;;17.70;52.60;;;;;;5045221;28;20218;-61
2020/12/11 00:56:23;;;;;;;5.85;5.25;;;17.70;52.60;;;;;;5044873;28;20175;-62
2020/12/11 00:58:49;;;;;;;5.82;5.32;;;17.70;52.60;;;;;;5044945;28;20222;-60
2020/12/11 01:01:14;;;;;;;6.40;5.43;;;17.60;52.60;;;;;;5044913;28;20514;-60
2020/12/11 01:03:40;;;;;;;6.38;5.30;;;17.70;52.60;;;;;;5044873;28;20851;-61
2020/12/11 01:06:06;;;;;;;7.80;6.18;;;17.60;52.60;;;;;;5044836;28;20180;-60
2020/12/11 01:08:31;;;;;;;6.38;5.78;;;17.60;52.60;;;;;;5044755;28;20175;-60
2020/12/11 01:10:57;;;;;;;6.38;5.78;;;17.60;52.60;;;;;;5044737;28;20253;-61
2020/12/11 01:13:22;;;;;;;6.53;5.20;;;17.50;52.50;;;;;;5044608;28;21040;-60
2020/12/11 01:15:48;;;;;;;6.30;5.38;;;17.50;52.60;;;;;;5045014;28;20238;-60
2020/12/11 01:18:13;;;;;;;5.20;4.70;;;17.50;52.60;;;;;;5044806;28;20175;-60
2020/12/11 01:20:39;;;;;;;6.03;5.30;;;17.50;52.50;;;;;;5044771;28;20214;-61
2020/12/11 01:23:04;;;;;;;5.75;5.15;;;17.50;52.60;;;;;;5044364;28;20191;-61
2020/12/11 01:25:30;;;;;;;6.88;5.80;;;17.50;52.60;;;;;;5044432;28;20206;-61
2020/12/11 01:27:56;;;;;;;5.53;5.03;;;17.40;52.60;;;;;;5044541;28;20175;-60
2020/12/11 01:30:21;;;;;;;6.13;5.38;;;17.40;52.50;;;;;;5044515;28;20168;-58
2020/12/11 01:32:47;;;;;;;6.95;5.93;;;17.40;52.50;;;;;;5044436;28;20203;-59
2020/12/11 01:35:12;;;;;;;5.13;4.63;;;17.40;52.40;;;;;;5044561;28;20171;-57
2020/12/11 01:37:38;;;;;;;5.85;5.25;;;17.30;52.50;;;;;;5044287;28;20262;-59
2020/12/11 01:40:05;;;;;;;6.13;5.50;;;17.40;52.50;;;;;;5044561;28;20186;-60
2020/12/11 01:42:30;;;;;;;6.18;5.53;;;17.30;52.50;;;;;;5044181;28;20174;-60
2020/12/11 01:44:56;;;;;;;5.65;5.13;;;17.30;52.40;;;;;;5044364;28;20620;-61
2020/12/11 01:47:22;;;;;;;6.07;5.25;;;17.30;52.40;;;;;;5044473;28;20175;-60
2020/12/11 01:49:47;;;;;;;5.45;4.75;;;17.30;52.40;;;;;;5044169;28;20179;-60
2020/12/11 01:52:16;;;;;;;5.32;4.82;;;17.20;52.40;;;;;;5044027;28;20277;-60
2020/12/11 01:54:43;;;;;;;5.97;5.22;;;17.20;52.50;;;;;;5044331;28;20939;-60
2020/12/11 01:57:13;;;;;;;5.35;4.85;;;17.20;52.50;;;;;;5044418;28;20225;-61
2020/12/11 01:59:40;;;;;;;5.53;5.03;;;17.20;52.50;;;;;;5026614;28;20175;-59
2020/12/11 02:02:06;;;;;;;6.30;5.32;;;17.20;52.50;;;;;;5043801;28;20182;-60
2020/12/11 02:04:33;;;;;;;5.63;5.03;;;17.20;52.50;;;;;;5043675;28;20182;-57
2020/12/11 02:06:58;;;;;;;5.15;4.65;;;17.20;52.50;;;;;;5043871;28;20292;-61
2020/12/11 02:09:24;;;;;;;5.63;5.13;;;17.20;52.50;;;;;;5043998;28;20178;-56
2020/12/11 02:11:51;;;;;;;5.18;4.63;;;17.20;52.50;;;;;;5026216;28;20221;-61
2020/12/11 02:14:16;;;;;;;4.90;4.40;;;17.20;52.50;;;;;;5043727;28;20301;-61
2020/12/11 02:16:42;;;;;;;5.57;4.97;;;17.10;52.50;;;;;;5043957;28;20716;-60
2020/12/11 02:19:07;;;;;;;5.20;4.72;;;17.10;52.40;;;;;;5044029;28;20704;-61
2020/12/11 02:21:33;;;;;;;5.53;4.95;;;17.10;52.50;;;;;;5043915;28;20642;-61
2020/12/11 02:23:58;;;;;;;5.40;4.78;;;17.00;52.40;;;;;;5043779;28;20565;-60
2020/12/11 02:26:24;;;;;;;5.63;5.07;;;17.10;52.40;;;;;;5043970;28;20213;-61
2020/12/11 02:28:50;;;;;;;5.40;4.88;;;17.10;52.40;;;;;;5043980;28;20210;-60
2020/12/11 02:31:16;;;;;;;5.50;4.90;;;17.00;52.40;;;;;;5043759;28;20167;-57
2020/12/11 02:33:41;;;;;;;5.20;4.63;;;17.00;52.40;;;;;;5043893;28;20207;-60
2020/12/11 02:36:07;;;;;;;5.40;4.90;;;17.00;52.40;;;;;;5043986;28;20596;-60
2020/12/11 02:38:32;;;;;;;5.07;4.57;;;17.00;52.40;;;;;;5043887;28;20221;-60
2020/12/11 02:41:01;;;;;;;4.90;4.40;;;17.00;52.40;;;;;;5043609;28;20179;-60
2020/12/11 02:43:27;;;;;;;5.10;4.60;;;17.00;52.40;;;;;;5043753;28;20210;-61
2020/12/11 02:45:52;;;;;;;5.82;4.97;;;16.90;52.40;;;;;;5043874;28;20270;-60
2020/12/11 02:48:18;;;;;;;4.85;4.35;;;16.90;52.30;;;;;;5043807;28;20171;-60
2020/12/11 02:50:44;;;;;;;5.30;4.80;;;16.90;52.40;;;;;;5043739;28;20186;-60
2020/12/11 02:53:10;;;;;;;4.88;4.43;;;16.90;52.30;;;;;;5025747;28;20207;-59
2020/12/11 02:55:35;;;;;;;4.95;4.45;;;16.90;52.30;;;;;;5043850;28;20256;-58
2020/12/11 02:58:01;;;;;;;5.10;4.60;;;16.90;52.40;;;;;;5044080;28;20171;-60
2020/12/11 03:00:26;;;;;;;5.05;4.55;;;16.90;52.40;;;;;;5043796;28;20199;-61
2020/12/11 03:02:52;;;;;;;5.35;4.80;;;16.80;52.20;;;;;;5043239;28;20555;-59
2020/12/11 03:05:17;;;;;;;5.32;4.82;;;16.80;52.30;;;;;;5043763;28;20271;-58
2020/12/11 03:07:43;;;;;;;4.00;3.70;;;16.80;52.30;;;;;;5043553;28;20182;-59
2020/12/11 03:10:08;;;;;;;5.45;4.95;;;16.80;52.30;;;;;;5043815;28;20179;-60
2020/12/11 03:12:34;;;;;;;4.30;4.00;;;16.90;52.40;;;;;;5043279;28;20207;-60
2020/12/11 03:15:00;;;;;;;4.45;4.05;;;16.80;52.30;;;;;;5043076;28;20185;-60
2020/12/11 03:17:25;;;;;;;4.80;4.30;;;16.80;52.30;;;;;;5042944;28;20245;-60
2020/12/11 03:19:51;;;;;;;4.47;4.07;;;16.80;52.30;;;;;;5043589;28;20597;-60
2020/12/11 03:22:17;;;;;;;4.60;4.20;;;16.80;52.30;;;;;;5046984;28;20179;-61
2020/12/11 03:24:42;;;;;;;4.80;4.40;;;16.70;52.30;;;;;;5046712;28;20932;-60
2020/12/11 03:27:08;;;;;;;4.78;4.28;;;16.70;52.30;;;;;;5046923;28;20179;-58
2020/12/11 03:29:33;;;;;;;4.50;4.10;;;16.70;52.30;;;;;;5046732;28;20641;-56
2020/12/11 03:31:59;;;;;;;4.43;3.85;;;16.70;52.30;;;;;;5046741;28;20200;-59
2020/12/11 03:34:25;;;;;;;4.50;4.10;;;16.70;52.30;;;;;;5046617;28;21111;-60
2020/12/11 03:36:50;;;;;;;4.85;4.45;;;16.70;52.30;;;;;;5046803;28;20183;-59
2020/12/11 03:39:16;;;;;;;4.72;4.32;;;16.70;52.30;;;;;;5046671;28;20179;-60
2020/12/11 03:41:43;;;;;;;4.78;4.38;;;16.60;52.30;;;;;;5046665;28;20205;-61
2020/12/11 03:44:08;;;;;;;5.07;4.68;;;16.70;52.30;;;;;;5046595;28;20526;-61
2020/12/11 03:46:34;;;;;;;4.68;4.28;;;16.60;52.30;;;;;;5046457;28;20179;-61
2020/12/11 03:48:59;;;;;;;4.45;4.05;;;16.60;52.20;;;;;;5046525;28;20179;-58
2020/12/11 03:51:25;;;;;;;4.70;4.22;;;16.60;52.30;;;;;;5046095;28;20182;-58
2020/12/11 03:53:50;;;;;;;4.63;4.22;;;16.60;52.30;;;;;;5046311;28;20234;-61
2020/12/11 03:56:17;;;;;;;4.63;4.22;;;16.60;52.20;;;;;;5046326;28;20178;-60
2020/12/11 03:58:43;;;;;;;4.30;3.90;;;16.60;52.20;;;;;;5046427;28;20175;-60
2020/12/11 04:01:12;;;;;;;4.70;4.30;;;16.60;52.30;;;;;;5046201;28;20572;-59
2020/12/11 04:03:38;;;;;;;4.35;3.97;;;16.60;52.40;;;;;;5045947;28;20179;-60
2020/12/11 04:06:10;;;;;;;4.68;4.22;;;16.60;52.30;;;;;;5046134;28;20175;-59
2020/12/11 04:08:36;;;;;;;4.60;4.20;;;16.50;52.10;;;;;;5046188;28;20175;-58
2020/12/11 04:11:05;;;;;;;4.53;4.20;;;16.50;52.20;;;;;;5045800;28;20187;-61
2020/12/11 04:13:31;;;;;;;4.60;4.20;;;16.50;52.40;;;;;;5045936;28;20215;-60
2020/12/11 04:15:57;;;;;;;4.55;4.10;;;16.50;52.20;;;;;;5045910;28;20224;-60
2020/12/11 04:18:22;;;;;;;4.70;4.25;;;16.50;52.10;;;;;;5046161;28;20660;-61
2020/12/11 04:20:48;;;;;;;4.30;3.90;;;16.50;52.10;;;;;;5028212;28;20202;-61
2020/12/11 04:23:13;;;;;;;4.95;4.55;;;16.50;52.10;;;;;;5045499;28;20199;-60
2020/12/11 04:25:39;;;;;;;4.78;4.35;;;16.40;52.20;;;;;;5045699;28;20175;-60
2020/12/11 04:28:04;;;;;;;4.43;4.10;;;16.50;52.20;;;;;;5045909;28;20287;-61
2020/12/11 04:30:30;;;;;;;4.38;3.97;;;16.40;52.10;;;;;;5045587;28;20563;-59
2020/12/11 04:32:55;;;;;;;4.78;4.38;;;16.40;52.10;;;;;;5044569;28;20265;-59
2020/12/11 04:35:21;;;;;;;4.40;4.00;;;16.40;52.10;;;;;;5045487;28;20187;-60
2020/12/11 04:37:47;;;;;;;4.53;4.13;;;16.40;52.00;;;;;;5045723;28;20250;-59
2020/12/11 04:40:14;;;;;;;4.47;4.07;;;16.40;52.10;;;;;;5045551;28;20270;-60
2020/12/11 04:42:40;;;;;;;4.00;3.70;;;16.40;52.00;;;;;;5027928;28;20225;-61
2020/12/11 04:45:06;;;;;;;4.55;4.15;;;16.40;52.10;;;;;;5010891;28;20179;-62
2020/12/11 04:47:31;;;;;;;4.80;4.40;;;16.40;52.00;;;;;;5045519;28;20194;-59
2020/12/11 04:49:57;;;;;;;4.82;4.32;;;16.40;52.70;;;;;;5011109;28;20633;-60
2020/12/11 04:52:23;;;;;;;4.30;3.90;;;16.30;52.00;;;;;;5045143;28;20539;-59
2020/12/11 04:54:49;;;;;;;4.60;4.20;;;16.30;52.00;;;;;;5010594;28;20183;-58
2020/12/11 04:57:19;;;;;;;4.60;4.20;;;16.30;52.00;;;;;;5044875;28;20241;-59
2020/12/11 04:59:45;;;;;;;4.53;4.13;;;16.30;52.00;;;;;;5027831;28;20168;-57
2020/12/11 05:02:11;;;;;;;4.45;4.05;;;16.30;52.00;;;;;;5045023;28;20584;-59
2020/12/11 05:04:38;;;;;;;4.45;4.07;;;16.30;52.00;;;;;;5045058;28;20179;-57
2020/12/11 05:07:03;;;;;;;4.68;4.30;;;16.20;52.00;;;;;;5044775;28;20223;-59
2020/12/11 05:09:29;;;;;;;4.10;3.80;;;16.30;52.00;;;;;;5045054;28;20195;-56
2020/12/11 05:11:55;;;;;;;4.07;3.70;;;16.30;52.00;;;;;;5045026;28;20188;-59
2020/12/11 05:14:21;;;;;;;3.92;3.63;;;16.20;52.00;;;;;;5044614;28;20214;-59
2020/12/11 05:16:56;;;;;;;4.50;4.10;;;16.20;52.00;;;;;;5044874;28;20547;-59
2020/12/11 05:19:22;;;;;;;4.03;3.72;;;16.20;52.00;;;;;;5044805;28;20262;-58
2020/12/11 05:21:47;;;;;;;4.80;4.40;;;16.20;52.00;;;;;;5044544;28;20286;-60
2020/12/11 05:24:13;;;;;;;4.47;4.07;;;16.20;51.90;;;;;;5026856;28;20219;-59
2020/12/11 05:26:39;;;;;;;4.30;3.90;;;16.20;51.90;;;;;;5044524;28;20186;-58
2020/12/11 05:29:04;;;;;;;3.72;3.42;;;16.20;51.80;;;;;;5044787;28;20180;-58
2020/12/11 05:31:30;;;;;;;4.38;4.05;;;16.20;52.00;;;;;;5044396;28;20190;-56
2020/12/11 05:34:02;;;;;;;4.07;3.67;;;16.20;51.90;;;;;;5044363;28;20256;-58
2020/12/11 05:36:30;;;;;;;4.65;4.25;;;16.20;51.90;;;;;;5044449;28;20182;-59
2020/12/11 05:38:55;;;;;;;4.53;3.88;;;16.20;51.80;;;;;;5026459;28;20175;-60
2020/12/11 05:41:34;;;;;;;4.72;4.32;;;16.10;51.80;;;;;;5043988;28;21082;-57
2020/12/11 05:43:59;;;;;;;4.63;4.22;;;16.20;51.90;;;;;;5044286;28;20180;-58
2020/12/11 05:46:31;;;;;;;4.75;4.35;;;16.10;51.90;;;;;;5026528;28;20547;-60
2020/12/11 05:49:00;;;;;;;4.47;4.13;;;16.00;51.90;;;;;;5044194;28;20217;-57
2020/12/11 05:51:34;;;;;;;4.63;4.22;;;16.10;51.80;;;;;;5044293;28;20171;-57
2020/12/11 05:54:04;;;;;;;4.65;4.18;;;16.10;51.80;;;;;;5026261;28;20207;-59
2020/12/11 05:56:30;;;;;;;4.40;4.00;;;16.10;51.80;;;;;;5026676;28;20186;-59
2020/12/11 05:58:56;;;;;;;3.95;3.60;;;16.10;51.90;;;;;;5026543;28;20580;-58
2020/12/11 06:01:21;;;;;;;3.97;3.63;;;16.10;52.10;;;;;;5010123;28;20683;-59
2020/12/11 06:03:47;;;;;;;3.83;3.53;;;16.10;52.10;;;;;;5010339;28;20536;-56
2020/12/11 06:06:16;;;;;;;3.75;3.45;;;16.20;52.20;;;;;;5026120;28;20179;-58
2020/12/11 06:08:45;;;;;;;3.70;3.40;;;16.20;52.20;;;;;;5026455;28;20182;-57
2020/12/11 06:11:20;;;;;;;3.30;3.00;;;16.40;52.30;;;;;;5044168;28;20206;-58
2020/12/11 06:13:53;;;;;;;3.67;3.38;;;16.60;52.10;;;;;;5043927;28;20207;-59
2020/12/11 06:16:19;;;;;;;3.10;2.90;;;16.80;51.90;;;;;;5043796;28;20171;-60
2020/12/11 06:18:45;;;;;;;3.10;2.80;;;17.00;51.60;;;;;;5009725;28;20250;-59
2020/12/11 06:21:10;;;;;;;3.17;2.88;;;17.20;51.30;;;;;;5009588;28;20258;-59
2020/12/11 06:23:39;;;;;;;3.38;3.08;;;17.40;51.00;;;;;;5026174;28;20238;-59
2020/12/11 06:26:05;;;;;;;3.78;3.47;;;17.60;50.70;;;;;;5026056;28;20629;-60
2020/12/11 06:28:38;;;;;;;3.35;3.05;;;17.80;50.30;;;;;;5043832;28;20220;-59
2020/12/11 06:31:10;;;;;;;3.35;3.05;;;17.90;50.10;;;;;;5043739;28;20975;-56
2020/12/11 06:33:37;;;;;;;3.28;3.00;;;18.00;50.00;;;;;;5043497;28;20254;-55
2020/12/11 06:36:04;;;;;;;3.10;2.90;;;18.00;49.80;;;;;;5043998;28;20240;-58
2020/12/11 06:38:54;;;;;;;3.17;2.88;;;18.10;50.40;;;;;;5043759;28;20225;-59
2020/12/11 06:41:28;;;;;;;3.00;2.80;;;18.20;49.70;;;;;;5043805;28;20215;-59
2020/12/11 06:43:55;;;;;;;2.63;2.42;;;18.20;49.70;;;;;;5043664;28;20277;-59
2020/12/11 06:46:22;;;;;;;2.67;2.47;;;18.20;49.60;;;;;;5043766;28;20175;-60
2020/12/11 06:49:08;;;;;;;3.00;2.70;;;18.30;49.60;;;;;;5043639;28;20270;-60
2020/12/11 06:51:54;;;;;;;3.10;2.83;;;18.30;49.60;;;;;;5043374;28;20641;-60
2020/12/11 06:54:22;;;;;;;2.80;2.60;;;18.40;49.50;;;;;;5026105;28;20696;-59
2020/12/11 06:56:52;;;;;;;2.83;2.63;;;18.30;49.60;;;;;;5047074;28;20188;-60
2020/12/11 06:59:25;;;;;;;2.85;2.63;;;18.20;49.70;;;;;;5047340;28;20167;-57
2020/12/11 07:01:51;;;;;;;2.92;2.70;;;18.10;49.80;;;;;;5047302;28;20589;-58
2020/12/11 07:04:17;;;;;;;2.80;2.60;;;18.00;49.90;;;;;;5047057;28;20291;-57
2020/12/11 07:06:52;;;;;;;2.72;2.53;;;18.00;50.10;;;;;;5047224;28;20911;-60
2020/12/11 07:09:18;;;;;;;2.70;2.50;;;17.90;50.30;;;;;;5047351;28;20177;-58
2020/12/11 07:11:44;;;;;;;3.10;2.80;;;17.90;50.30;;;;;;5047315;28;20406;-59
2020/12/11 07:14:10;;;;;;;2.78;2.58;;;17.80;50.30;;;;;;5047223;28;20325;-59
2020/12/11 07:16:42;;;;;;;2.70;2.50;;;17.90;50.40;;;;;;5047063;28;20368;-60
2020/12/11 07:19:08;;;;;;;2.70;2.50;;;17.90;50.30;;;;;;5047183;28;20206;-60
2020/12/11 07:21:34;;;;;;;3.10;2.88;;;17.90;50.30;;;;;;5029550;28;20548;-60
2020/12/11 07:24:03;;;;;;;3.42;3.03;;;17.90;50.30;;;;;;5047033;28;20280;-60
2020/12/11 07:26:29;;;;;;;2.50;2.35;;;17.90;50.20;;;;;;5046924;28;20198;-59
2020/12/11 07:29:18;;;;;;;2.88;2.67;;;17.90;50.30;;;;;;5029079;28;20269;-59
2020/12/11 07:31:44;;;;;;;3.05;2.75;;;17.80;50.30;;;;;;5046698;28;20167;-55
2020/12/11 07:34:20;;;;;;;3.20;2.78;;;17.70;50.40;;;;;;5046793;28;20206;-56
2020/12/11 07:36:46;;;;;;;2.95;2.65;;;17.70;50.60;;;;;;5047046;28;20173;-60
2020/12/11 07:39:17;;;;;;;2.58;2.38;;;17.60;50.70;;;;;;5046779;28;20206;-59
2020/12/11 07:41:46;;;;;;;2.90;2.70;;;17.60;50.80;;;;;;5028959;28;20175;-59
2020/12/11 07:44:22;;;;;;;2.63;2.42;;;17.60;50.90;;;;;;5046425;28;20229;-61
2020/12/11 07:46:48;;;;;;;2.60;2.40;;;17.60;50.90;;;;;;5046639;28;20906;-60
2020/12/11 07:49:13;;;;;;;2.72;2.53;;;17.60;50.70;;;;;;5028528;28;20186;-59
2020/12/11 07:51:49;;;;;;;2.30;2.20;;;17.60;50.70;;;;;;5046447;28;20636;-59
2020/12/11 07:54:16;;;;;;;2.50;2.30;;;17.70;50.70;;;;;;5046550;28;20211;-59
2020/12/11 07:56:42;;;;;;;2.75;2.50;;;17.60;50.60;;;;;;5046392;28;20189;-60
2020/12/11 07:59:11;;;;;;;2.50;2.30;;;17.60;50.60;;;;;;5046747;28;20633;-59
2020/12/11 08:01:38;;;;;;;3.00;2.80;;;17.60;50.60;;;;;;5046189;28;20172;-59
2020/12/11 08:04:03;;;;;;;2.70;2.50;;;17.60;50.80;;;;;;5028642;28;20322;-58
2020/12/11 08:06:29;;;;;;;2.67;2.47;;;17.50;50.80;;;;;;5028249;28;20641;-59
2020/12/11 08:08:54;;;;;;;3.22;2.92;;;17.40;51.10;;;;;;5046271;28;20175;-59
2020/12/11 08:11:24;;;;;;;2.50;2.30;;;17.40;51.00;;;;;;5046176;28;20203;-59
2020/12/11 08:14:00;;;;;;;2.78;2.58;;;17.40;51.00;;;;;;5046563;28;20264;-59
2020/12/11 08:16:27;;;;;;;2.97;2.78;;;17.50;51.00;;;;;;5045682;28;20217;-60
2020/12/11 08:18:53;;;;;;;3.20;2.92;;;17.50;50.90;;;;;;5045890;28;20580;-60
2020/12/11 08:21:28;;;;;;;3.03;2.83;;;17.50;50.90;;;;;;5028271;28;20213;-59
2020/12/11 08:23:53;;;;;;;3.35;3.05;;;17.50;50.80;;;;;;5045213;28;20201;-63
2020/12/11 08:26:19;;;;;;;3.42;2.90;;;17.50;51.60;;;;;;5045597;28;20179;-67
2020/12/11 08:28:46;;;;;;;4.82;3.38;;;17.50;51.10;;;;;;5045757;28;20995;-63
2020/12/11 08:31:14;;;;;;;5.00;3.42;;;17.40;51.30;;;;;;5045803;28;20171;-64
2020/12/11 08:33:39;;;;;;;4.45;3.40;;;17.30;51.50;;;;;;5027841;28;20211;-63
2020/12/11 08:36:05;;;;;;;3.45;2.90;;;17.30;51.70;;;;;;5045648;28;20170;-63
2020/12/11 08:38:30;;;;;;;5.13;2.90;;;17.30;51.90;;;;;;5045500;28;20214;-62
2020/12/11 08:40:56;;;;;;;3.35;2.85;;;17.30;51.90;;;;;;5045548;28;20182;-62
2020/12/11 08:43:38;;;;;;;2.92;2.70;;;17.40;51.90;;;;;;5045551;28;20182;-63
2020/12/11 08:49:20;;;;;;;3.38;2.92;;;17.40;51.80;;;;;;5044775;28;20174;-62
2020/12/11 08:51:45;;;;;;;2.85;2.60;;;17.50;51.80;;;;;;5045153;28;20676;-64
2020/12/11 08:54:11;;;;;;;4.70;2.78;;;17.50;51.80;;;;;;5044899;28;20218;-64
2020/12/11 08:56:42;;;;;;;3.60;2.70;;;17.50;52.40;;;;;;5045109;28;20180;-67
2020/12/11 08:59:08;;;;;;;5.30;3.08;;;17.50;51.90;;;;;;5045055;28;20196;-66
2020/12/11 09:01:33;;;;;;;5.05;3.08;;;17.40;52.10;;;;;;5045471;28;20183;-66
2020/12/11 09:03:59;;;;;;;4.63;3.13;;;17.40;52.40;;;;;;5045497;28;20240;-62
2020/12/11 09:06:24;;;;;;;3.17;2.78;;;17.30;52.70;;;;;;5045056;28;20227;-62
2020/12/11 09:08:50;;;;;;;4.72;3.15;;;17.30;52.80;;;;;;5044583;28;20175;-63
2020/12/11 09:11:15;;;;;;;3.10;2.90;;;17.30;52.70;;;;;;5044840;28;20182;-63
2020/12/11 09:13:41;;;;;;;2.63;2.42;;;17.30;52.60;;;;;;5044892;28;20245;-64
2020/12/11 09:16:07;;;;;;;3.10;2.80;;;17.40;52.50;;;;;;5044726;28;20213;-63
2020/12/11 09:18:32;;;;;;;3.70;3.00;;;17.40;52.40;;;;;;5044104;28;20194;-64
2020/12/11 09:20:58;;;;;;;2.95;2.63;;;17.50;52.40;;;;;;5044715;28;20179;-64
2020/12/11 09:23:23;;;;;;;2.78;2.50;;;17.40;52.30;;;;;;5044663;28;20186;-65
2020/12/11 09:25:49;;;;;;;3.30;2.67;;;17.50;52.40;;;;;;5044766;28;20643;-63
2020/12/11 09:28:17;;;;;;;4.68;2.70;;;17.40;52.40;;;;;;5044385;28;20985;-64
2020/12/11 09:30:44;;;;;;;3.20;2.90;;;17.40;52.50;;;;;;5044440;28;20202;-65
2020/12/11 09:35:39;;;;;;;5.72;3.10;;;17.40;52.60;;;;;;5044377;28;20937;-62
2020/12/11 09:38:04;;;;;;;4.25;2.72;;;17.30;52.60;;;;;;5044225;28;20245;-64
2020/12/11 09:45:45;;;;;;;3.95;2.72;;;17.40;52.60;;;;;;5043974;28;20584;-63
2020/12/11 09:48:17;;;;;;;3.00;2.70;;;17.40;52.60;;;;;;5044202;28;20166;-62
2020/12/11 09:51:04;;;;;;;2.78;2.53;;;17.50;52.50;;;;;;5044292;28;20971;-63
2020/12/11 09:56:01;;;;;;;2.97;2.72;;;17.40;52.60;;;;;;5026274;28;20179;-63
2020/12/11 09:58:27;;;;;;;2.58;2.38;;;17.40;52.60;;;;;;5044283;28;20194;-63
2020/12/11 10:00:52;;;;;;;3.95;2.67;;;17.30;52.70;;;;;;5044149;28;20218;-62
2020/12/11 10:03:22;;;;;;;3.20;2.47;;;17.30;52.70;;;;;;5044134;28;20175;-63
2020/12/11 10:05:47;;;;;;;3.72;3.20;;;17.30;52.80;;;;;;5043932;28;20167;-62
2020/12/11 10:08:13;;;;;;;4.10;2.80;;;17.30;52.80;;;;;;5026352;28;20182;-64
2020/12/11 10:10:39;;;;;;;3.08;2.63;;;17.30;52.70;;;;;;5044173;28;20175;-63
2020/12/11 10:13:05;;;;;;;4.47;2.50;;;17.30;52.70;;;;;;5043704;28;20775;-63
2020/12/11 10:15:32;;;;;;;3.47;2.20;;;17.40;52.70;;;;;;5043989;28;20179;-65
2020/12/11 10:17:58;;;;;;;3.10;2.80;;;17.40;52.80;;;;;;5044011;28;20221;-63
2020/12/11 10:20:24;;;;;;;3.00;2.70;;;17.30;52.70;;;;;;5043815;28;20179;-64
2020/12/11 10:22:52;;;;;;;3.50;2.50;;;17.30;52.80;;;;;;5026434;28;20182;-62
2020/12/11 10:25:18;;;;;;;3.78;2.50;;;17.30;52.80;;;;;;5043718;28;20191;-61
2020/12/11 10:27:43;;;;;;;4.10;2.70;;;17.30;52.80;;;;;;5034489;28;20220;-66
2020/12/11 10:30:09;;;;;;;4.40;2.78;;;17.20;52.90;;;;;;5055477;28;20583;-65
2020/12/11 10:32:35;;;;;;;3.40;2.92;;;17.20;53.00;;;;;;5056560;28;20176;-63
2020/12/11 10:35:00;;;;;;;3.92;2.72;;;17.20;52.90;;;;;;5040118;28;20210;-62
2020/12/11 10:37:26;;;;;;;3.00;2.70;;;17.20;52.90;;;;;;5055848;28;20209;-63
2020/12/11 10:39:51;;;;;;;4.47;3.28;;;17.40;52.70;;;;;;5054239;28;20588;-62
2020/12/11 10:42:17;;;;;;;3.25;2.67;;;17.60;52.50;;;;;;5056840;28;20250;-62
2020/12/11 10:44:43;;;;;;;2.88;2.65;;;17.90;52.30;;;;;;5058914;28;20181;-63
2020/12/11 10:47:08;;;;;;;2.72;2.38;;;18.10;51.90;;;;;;5057796;28;20217;-62
2020/12/11 10:49:34;;;;;;;2.78;2.58;;;18.40;51.50;;;;;;5056733;28;20225;-62
2020/12/11 10:52:00;;;;;;;2.80;2.13;;;18.70;51.10;;;;;;5038217;28;20186;-64
2020/12/11 10:54:27;;;;;;;3.03;2.70;;;18.90;50.70;;;;;;5056640;28;20210;-63
2020/12/11 10:56:53;;;;;;;3.50;2.75;;;19.10;50.40;;;;;;5057208;28;20179;-64
2020/12/11 10:59:18;;;;;;;3.17;2.28;;;19.20;50.20;;;;;;5057073;28;20182;-63
2020/12/11 11:01:44;;;;;;;2.67;2.13;;;19.30;50.20;;;;;;5056317;28;20190;-63
2020/12/11 11:04:10;;;;;;;3.20;2.10;;;19.40;50.00;;;;;;5067621;28;20179;-62
2020/12/11 11:06:42;;;;;;;3.00;2.40;;;19.40;50.00;;;;;;5067624;28;20178;-62
2020/12/11 11:11:38;;;;;;;3.70;2.40;;;19.40;50.00;;;;;;5066684;28;20166;-62
2020/12/11 11:25:02;;;;;;;2.72;2.45;;;19.30;50.30;;;;;;5065849;28;20245;-62
2020/12/11 11:29:37;;;;;;;3.63;1.83;;;19.20;50.40;;;;;;5045272;28;20254;-63
2020/12/11 11:32:02;;;;;;;2.70;2.50;;;19.20;50.30;;;;;;5045620;28;20206;-61
2020/12/11 11:34:28;;;;;;;3.58;2.10;;;19.10;50.40;;;;;;5047906;28;20234;-63
2020/12/11 11:36:53;;;;;;;2.10;1.90;;;19.10;50.50;;;;;;5065926;28;20167;-63
2020/12/11 11:39:19;;;;;;;2.92;2.00;;;19.10;51.20;;;;;;5065296;28;20182;-62
2020/12/11 11:41:46;;;;;;;2.25;2.00;;;19.10;50.70;;;;;;5047162;28;20220;-63
2020/12/11 11:46:46;;;;;;;2.38;2.15;;;19.00;50.60;;;;;;5065221;28;20174;-63
2020/12/11 11:49:14;;;;;;;2.33;2.13;;;19.10;50.60;;;;;;5065280;28;20658;-62
2020/12/11 11:51:48;;;;;;;4.05;2.30;;;19.10;51.20;;;;;;5061637;28;20648;-63
2020/12/11 11:54:14;;;;;;;2.33;2.13;;;19.00;50.50;;;;;;5045209;28;20221;-62
2020/12/11 11:56:40;;;;;;;2.30;2.03;;;19.10;50.50;;;;;;5045252;28;20353;-63
2020/12/11 11:59:05;;;;;;;2.40;2.20;;;19.10;50.50;;;;;;5045315;28;20179;-63
2020/12/11 12:01:31;;;;;;;1.70;1.60;;;19.10;50.60;;;;;;5045193;28;20656;-62
2020/12/11 12:03:56;;;;;;;2.53;1.70;;;19.00;50.60;;;;;;5044995;28;20944;-63
2020/12/11 12:06:22;;;;;;;2.33;2.13;;;19.00;50.60;;;;;;5045106;28;20614;-63
2020/12/11 12:08:48;;;;;;;1.90;1.80;;;19.00;50.60;;;;;;5044956;28;20167;-64
2020/12/11 12:11:14;;;;;;;1.90;1.70;;;19.10;50.60;;;;;;5044894;28;20175;-62
2020/12/11 12:13:39;;;;;;;1.88;1.77;;;19.00;50.50;;;;;;5045015;28;20221;-63
2020/12/11 12:16:05;;;;;;;3.13;2.30;;;19.10;50.60;;;;;;5045128;28;20175;-64
2020/12/11 12:18:30;;;;;;;3.58;2.00;;;19.10;50.50;;;;;;5044947;28;20206;-64
2020/12/11 12:21:02;;;;;;;2.17;1.90;;;19.10;50.40;;;;;;5044905;28;20176;-64
2020/12/11 12:28:57;;;;;;;2.10;1.90;;;19.20;50.50;;;;;;5054787;28;20365;-64
2020/12/11 12:31:27;;;;;;;2.00;1.60;;;19.10;50.60;;;;;;5053173;28;20206;-64
2020/12/11 12:44:18;;;;;;;2.13;1.75;;;19.10;50.90;;;;;;5054554;28;20608;-65
2020/12/11 12:46:45;;;;;;;1.80;1.60;;;19.00;50.90;;;;;;5035083;28;20171;-64
2020/12/11 12:49:11;;;;;;;1.83;1.67;;;19.10;50.90;;;;;;5036295;28;20166;-64
2020/12/11 12:51:36;;;;;;;2.05;1.95;;;19.10;51.00;;;;;;5054310;28;20187;-65
2020/12/11 12:54:02;;;;;;;2.10;1.90;;;19.10;51.00;;;;;;5044114;28;20289;-64
2020/12/11 12:56:39;;;;;;;2.42;1.65;;;19.10;51.00;;;;;;5045088;28;20183;-63
2020/12/11 13:07:08;;;;;;;2.45;1.85;;;19.20;51.00;;;;;;5028471;28;20186;-64
2020/12/11 13:09:34;;;;;;;2.30;1.88;;;19.20;51.00;;;;;;5044914;28;20175;-63
2020/12/11 13:12:00;;;;;;;2.53;1.92;;;19.20;51.00;;;;;;5026914;28;20175;-62
2020/12/11 13:14:26;;;;;;;2.95;1.80;;;19.20;51.00;;;;;;5027139;28;20664;-64
2020/12/11 13:16:51;;;;;;;3.22;1.85;;;19.20;51.10;;;;;;5045186;28;20276;-63
2020/12/11 13:19:19;;;;;;;4.40;1.92;;;19.20;51.20;;;;;;5045294;28;20731;-64
2020/12/11 13:22:34;;;;;;;2.28;1.70;;;19.10;51.30;;;;;;5044808;28;20178;-65
2020/12/11 13:27:25;;;;;;;4.10;1.92;;;18.80;51.50;;;;;;5028363;28;20210;-62
2020/12/11 13:29:50;;;;;;;4.35;2.13;;;18.70;51.60;;;;;;5039318;28;20183;-63
2020/12/11 13:32:16;;;;;;;2.55;1.70;;;18.70;51.70;;;;;;5024679;28;20179;-64
2020/12/11 13:34:41;;;;;;;2.78;1.88;;;18.70;51.70;;;;;;5034487;28;20234;-62
2020/12/11 13:37:07;;;;;;;2.20;2.00;;;18.70;51.70;;;;;;5044602;28;20185;-63
2020/12/11 13:39:33;;;;;;;3.53;1.85;;;18.70;51.70;;;;;;5044363;28;20202;-63
2020/12/11 13:41:58;;;;;;;3.45;2.10;;;18.70;51.70;;;;;;5044329;28;20706;-63
2020/12/11 13:44:24;;;;;;;3.42;1.90;;;18.80;51.60;;;;;;5024083;28;20546;-63